sensor_id;sensor_type;location;lat;lon;timestamp;temperature;humidity
75161;DHT22;63738;50.096;8.716;2022-12-18T00:01:24;-3275.60;78.90
75161;DHT22;63738;50.096;8.716;2022-12-18T00:03:52;-3275.60;78.90
75161;DHT22;63738;50.096;8.716;2022-12-18T00:06:17;-3275.60;78.90
75161;DHT22;63738;50.096;8.716;2022-12-18T00:08:44;-3275.60;78.90
75161;DHT22;63738;50.096;8.716;2022-12-18T00:11:22;-3275.60;78.90
75161;DHT22;63738;50.096;8.716;2022-12-18T00:13:48;-3275.60;78.90
75161;DHT22;63738;50.096;8.716;2022-12-18T00:16:17;-3275.60;78.90
75161;DHT22;63738;50.096;8.716;2022-12-18T00:18:46;-3275.60;78.90
75161;DHT22;63738;50.096;8.716;2022-12-18T00:21:13;-3275.60;78.90
75161;DHT22;63738;50.096;8.716;2022-12-18T00:23:39;-3275.60;78.90
75161;DHT22;63738;50.096;8.716;2022-12-18T00:26:08;-3275.60;78.90
75161;DHT22;63738;50.096;8.716;2022-12-18T00:28:35;-3275.60;78.90
75161;DHT22;63738;50.096;8.716;2022-12-18T00:31:06;-3275.60;78.90
75161;DHT22;63738;50.096;8.716;2022-12-18T00:33:32;-3275.60;78.90
75161;DHT22;63738;50.096;8.716;2022-12-18T00:36:05;-3275.60;78.90
75161;DHT22;63738;50.096;8.716;2022-12-18T00:38:32;-3275.60;78.90
75161;DHT22;63738;50.096;8.716;2022-12-18T00:40:58;-3275.60;78.90
75161;DHT22;63738;50.096;8.716;2022-12-18T00:43:23;-3275.60;78.90
75161;DHT22;63738;50.096;8.716;2022-12-18T00:45:49;-3275.60;78.90
75161;DHT22;63738;50.096;8.716;2022-12-18T00:48:15;-3275.60;78.90
75161;DHT22;63738;50.096;8.716;2022-12-18T00:50:40;-3275.60;78.90
75161;DHT22;63738;50.096;8.716;2022-12-18T00:53:06;-3275.60;78.90
75161;DHT22;63738;50.096;8.716;2022-12-18T00:55:32;-3275.60;78.90
75161;DHT22;63738;50.096;8.716;2022-12-18T00:57:57;-3275.60;78.90
75161;DHT22;63738;50.096;8.716;2022-12-18T01:00:23;-3275.60;78.90
75161;DHT22;63738;50.096;8.716;2022-12-18T01:02:49;-3275.60;78.90
75161;DHT22;63738;50.096;8.716;2022-12-18T01:05:15;-3275.60;78.90
75161;DHT22;63738;50.096;8.716;2022-12-18T01:07:41;-3275.60;78.90
75161;DHT22;63738;50.096;8.716;2022-12-18T01:10:08;-3275.60;78.90
75161;DHT22;63738;50.096;8.716;2022-12-18T01:12:34;-3275.60;78.90
75161;DHT22;63738;50.096;8.716;2022-12-18T01:15:00;-3275.60;78.90
75161;DHT22;63738;50.096;8.716;2022-12-18T01:17:26;-3275.60;78.90
75161;DHT22;63738;50.096;8.716;2022-12-18T01:19:52;-3275.60;78.90
75161;DHT22;63738;50.096;8.716;2022-12-18T01:22:18;-3275.60;78.90
75161;DHT22;63738;50.096;8.716;2022-12-18T01:24:43;-3275.60;78.90
75161;DHT22;63738;50.096;8.716;2022-12-18T01:27:09;-3275.60;78.90
75161;DHT22;63738;50.096;8.716;2022-12-18T01:29:34;-3275.60;78.90
75161;DHT22;63738;50.096;8.716;2022-12-18T01:32:00;-3275.60;78.90
75161;DHT22;63738;50.096;8.716;2022-12-18T01:34:26;-3275.60;78.90
75161;DHT22;63738;50.096;8.716;2022-12-18T01:36:51;-3275.60;78.90
75161;DHT22;63738;50.096;8.716;2022-12-18T01:39:20;-3275.60;78.90
75161;DHT22;63738;50.096;8.716;2022-12-18T01:41:46;-3275.60;78.90
75161;DHT22;63738;50.096;8.716;2022-12-18T01:49:52;-3275.60;78.90
75161;DHT22;63738;50.096;8.716;2022-12-18T01:52:19;-3275.60;78.90
75161;DHT22;63738;50.096;8.716;2022-12-18T01:54:46;-3275.60;78.90
75161;DHT22;63738;50.096;8.716;2022-12-18T01:57:13;-3275.60;78.90
75161;DHT22;63738;50.096;8.716;2022-12-18T01:59:39;-3275.60;78.90
75161;DHT22;63738;50.096;8.716;2022-12-18T02:02:06;-3275.60;78.90
75161;DHT22;63738;50.096;8.716;2022-12-18T02:04:33;-3275.60;78.90
75161;DHT22;63738;50.096;8.716;2022-12-18T02:07:18;-3275.60;78.90
75161;DHT22;63738;50.096;8.716;2022-12-18T02:10:19;-3275.60;78.90
75161;DHT22;63738;50.096;8.716;2022-12-18T02:13:05;-3275.60;78.90
75161;DHT22;63738;50.096;8.716;2022-12-18T02:18:22;-3275.60;78.90
75161;DHT22;63738;50.096;8.716;2022-12-18T02:20:57;-3275.60;78.90
75161;DHT22;63738;50.096;8.716;2022-12-18T02:26:36;-3275.60;78.90
75161;DHT22;63738;50.096;8.716;2022-12-18T02:29:12;-3275.60;78.90
75161;DHT22;63738;50.096;8.716;2022-12-18T02:31:43;-3275.60;78.90
75161;DHT22;63738;50.096;8.716;2022-12-18T02:34:11;-3275.60;78.90
75161;DHT22;63738;50.096;8.716;2022-12-18T02:36:40;-3275.60;78.90
75161;DHT22;63738;50.096;8.716;2022-12-18T02:39:09;-3275.60;78.90
75161;DHT22;63738;50.096;8.716;2022-12-18T02:41:36;-3275.60;78.90
75161;DHT22;63738;50.096;8.716;2022-12-18T02:44:09;-3275.60;78.90
75161;DHT22;63738;50.096;8.716;2022-12-18T02:46:44;-3275.60;78.90
75161;DHT22;63738;50.096;8.716;2022-12-18T02:58:17;-3275.60;78.90
75161;DHT22;63738;50.096;8.716;2022-12-18T03:00:51;-3275.60;78.90
75161;DHT22;63738;50.096;8.716;2022-12-18T03:03:30;-3275.60;78.90
75161;DHT22;63738;50.096;8.716;2022-12-18T03:06:08;-3275.60;78.90
75161;DHT22;63738;50.096;8.716;2022-12-18T03:08:42;-3275.60;78.90
75161;DHT22;63738;50.096;8.716;2022-12-18T03:11:10;-3275.60;78.90
75161;DHT22;63738;50.096;8.716;2022-12-18T03:13:37;-3275.60;78.90
75161;DHT22;63738;50.096;8.716;2022-12-18T03:16:07;-3275.60;78.90
75161;DHT22;63738;50.096;8.716;2022-12-18T03:18:42;-3275.60;78.90
75161;DHT22;63738;50.096;8.716;2022-12-18T03:21:12;-3275.60;78.90
75161;DHT22;63738;50.096;8.716;2022-12-18T03:23:46;-3275.60;78.90
75161;DHT22;63738;50.096;8.716;2022-12-18T03:26:17;-3275.60;78.90
75161;DHT22;63738;50.096;8.716;2022-12-18T03:28:53;-3275.60;78.90
75161;DHT22;63738;50.096;8.716;2022-12-18T03:31:22;-3275.60;78.90
75161;DHT22;63738;50.096;8.716;2022-12-18T03:33:59;-3275.60;78.90
75161;DHT22;63738;50.096;8.716;2022-12-18T03:36:26;-3275.60;78.90
75161;DHT22;63738;50.096;8.716;2022-12-18T03:38:55;-3275.60;78.90
75161;DHT22;63738;50.096;8.716;2022-12-18T03:41:49;-3275.60;78.90
75161;DHT22;63738;50.096;8.716;2022-12-18T03:47:12;-3275.60;78.90
75161;DHT22;63738;50.096;8.716;2022-12-18T03:55:19;-3275.60;78.90
75161;DHT22;63738;50.096;8.716;2022-12-18T03:57:47;-3275.60;78.90
75161;DHT22;63738;50.096;8.716;2022-12-18T04:00:16;-3275.60;78.90
75161;DHT22;63738;50.096;8.716;2022-12-18T04:02:52;-3275.60;78.90
75161;DHT22;63738;50.096;8.716;2022-12-18T04:05:19;-3275.60;78.90
75161;DHT22;63738;50.096;8.716;2022-12-18T04:07:47;-3275.60;78.90
75161;DHT22;63738;50.096;8.716;2022-12-18T04:10:14;-3275.60;78.90
75161;DHT22;63738;50.096;8.716;2022-12-18T04:12:41;-3275.60;78.90
75161;DHT22;63738;50.096;8.716;2022-12-18T04:15:07;-3275.60;78.90
75161;DHT22;63738;50.096;8.716;2022-12-18T04:17:33;-3275.60;78.90
75161;DHT22;63738;50.096;8.716;2022-12-18T04:19:59;-3275.60;78.90
75161;DHT22;63738;50.096;8.716;2022-12-18T04:22:24;-3275.60;78.90
75161;DHT22;63738;50.096;8.716;2022-12-18T04:24:50;-3275.60;78.90
75161;DHT22;63738;50.096;8.716;2022-12-18T04:27:15;-3275.60;78.90
75161;DHT22;63738;50.096;8.716;2022-12-18T04:29:41;-3275.60;78.90
75161;DHT22;63738;50.096;8.716;2022-12-18T04:32:07;-3275.60;78.90
75161;DHT22;63738;50.096;8.716;2022-12-18T04:34:33;-3275.60;78.90
75161;DHT22;63738;50.096;8.716;2022-12-18T04:36:58;-3275.60;78.90
75161;DHT22;63738;50.096;8.716;2022-12-18T04:39:24;-3275.60;78.90
75161;DHT22;63738;50.096;8.716;2022-12-18T04:41:50;-3275.60;78.90
75161;DHT22;63738;50.096;8.716;2022-12-18T04:44:15;-3275.60;78.90
75161;DHT22;63738;50.096;8.716;2022-12-18T04:46:41;-3275.60;78.90
75161;DHT22;63738;50.096;8.716;2022-12-18T04:49:07;-3275.60;78.90
75161;DHT22;63738;50.096;8.716;2022-12-18T04:51:32;-3275.60;78.90
75161;DHT22;63738;50.096;8.716;2022-12-18T04:53:58;-3275.60;78.90
75161;DHT22;63738;50.096;8.716;2022-12-18T04:56:23;-3275.60;78.90
75161;DHT22;63738;50.096;8.716;2022-12-18T04:58:49;-3275.60;78.90
75161;DHT22;63738;50.096;8.716;2022-12-18T05:01:16;-3275.60;78.90
75161;DHT22;63738;50.096;8.716;2022-12-18T05:03:42;-3275.60;78.90
75161;DHT22;63738;50.096;8.716;2022-12-18T05:06:08;-3275.60;78.90
75161;DHT22;63738;50.096;8.716;2022-12-18T05:08:34;-3275.60;78.90
75161;DHT22;63738;50.096;8.716;2022-12-18T05:11:02;-3275.60;78.90
75161;DHT22;63738;50.096;8.716;2022-12-18T05:13:28;-3275.60;78.90
75161;DHT22;63738;50.096;8.716;2022-12-18T05:15:54;-3275.60;78.90
75161;DHT22;63738;50.096;8.716;2022-12-18T05:18:20;-3275.60;78.90
75161;DHT22;63738;50.096;8.716;2022-12-18T05:20:46;-3275.60;78.90
75161;DHT22;63738;50.096;8.716;2022-12-18T05:23:11;-3275.60;78.90
75161;DHT22;63738;50.096;8.716;2022-12-18T05:25:37;-3275.60;78.90
75161;DHT22;63738;50.096;8.716;2022-12-18T05:28:03;-3275.60;78.90
75161;DHT22;63738;50.096;8.716;2022-12-18T05:30:28;-3275.60;78.90
75161;DHT22;63738;50.096;8.716;2022-12-18T05:32:54;-3275.60;78.90
75161;DHT22;63738;50.096;8.716;2022-12-18T05:35:20;-3275.60;78.90
75161;DHT22;63738;50.096;8.716;2022-12-18T05:37:45;-3275.60;78.90
75161;DHT22;63738;50.096;8.716;2022-12-18T05:40:12;-3275.60;78.90
75161;DHT22;63738;50.096;8.716;2022-12-18T05:42:37;-3275.60;78.90
75161;DHT22;63738;50.096;8.716;2022-12-18T05:45:04;-3275.60;78.90
75161;DHT22;63738;50.096;8.716;2022-12-18T05:47:30;-3275.60;78.90
75161;DHT22;63738;50.096;8.716;2022-12-18T05:49:55;-3275.60;78.90
75161;DHT22;63738;50.096;8.716;2022-12-18T05:52:21;-3275.60;78.90
75161;DHT22;63738;50.096;8.716;2022-12-18T05:54:47;-3275.60;78.90
75161;DHT22;63738;50.096;8.716;2022-12-18T05:57:13;-3275.60;78.90
75161;DHT22;63738;50.096;8.716;2022-12-18T05:59:38;-3275.60;78.90
75161;DHT22;63738;50.096;8.716;2022-12-18T06:02:04;-3275.60;78.90
75161;DHT22;63738;50.096;8.716;2022-12-18T06:04:29;-3275.60;78.90
75161;DHT22;63738;50.096;8.716;2022-12-18T06:06:55;-3275.60;78.90
75161;DHT22;63738;50.096;8.716;2022-12-18T06:09:21;-3275.60;78.90
75161;DHT22;63738;50.096;8.716;2022-12-18T06:11:46;-3275.60;78.90
75161;DHT22;63738;50.096;8.716;2022-12-18T06:14:12;-3275.60;78.90
75161;DHT22;63738;50.096;8.716;2022-12-18T06:16:38;-3275.60;78.90
75161;DHT22;63738;50.096;8.716;2022-12-18T06:19:05;-3275.60;78.90
75161;DHT22;63738;50.096;8.716;2022-12-18T06:21:31;-3275.60;78.90
75161;DHT22;63738;50.096;8.716;2022-12-18T06:23:57;-3275.60;78.90
75161;DHT22;63738;50.096;8.716;2022-12-18T06:26:23;-3275.60;78.90
75161;DHT22;63738;50.096;8.716;2022-12-18T06:28:49;-3275.60;78.90
75161;DHT22;63738;50.096;8.716;2022-12-18T06:31:14;-3275.60;78.90
75161;DHT22;63738;50.096;8.716;2022-12-18T06:33:41;-3275.60;78.90
75161;DHT22;63738;50.096;8.716;2022-12-18T06:36:10;-3275.60;78.90
75161;DHT22;63738;50.096;8.716;2022-12-18T06:38:38;-3275.60;78.90
75161;DHT22;63738;50.096;8.716;2022-12-18T06:41:16;-3275.60;78.90
75161;DHT22;63738;50.096;8.716;2022-12-18T06:43:42;-3275.60;78.90
75161;DHT22;63738;50.096;8.716;2022-12-18T06:46:08;-3275.60;78.90
75161;DHT22;63738;50.096;8.716;2022-12-18T06:48:34;-3275.60;78.90
75161;DHT22;63738;50.096;8.716;2022-12-18T06:50:59;-3275.60;78.90
75161;DHT22;63738;50.096;8.716;2022-12-18T06:53:26;-3275.60;78.90
75161;DHT22;63738;50.096;8.716;2022-12-18T06:55:51;-3275.60;78.90
75161;DHT22;63738;50.096;8.716;2022-12-18T06:58:17;-3275.60;78.90
75161;DHT22;63738;50.096;8.716;2022-12-18T07:00:43;-3275.60;78.90
75161;DHT22;63738;50.096;8.716;2022-12-18T07:03:09;-3275.60;78.90
75161;DHT22;63738;50.096;8.716;2022-12-18T07:05:39;-3275.60;78.90
75161;DHT22;63738;50.096;8.716;2022-12-18T07:08:05;-3275.60;78.90
75161;DHT22;63738;50.096;8.716;2022-12-18T07:10:30;-3275.60;78.90
75161;DHT22;63738;50.096;8.716;2022-12-18T07:12:56;-3275.60;78.90
75161;DHT22;63738;50.096;8.716;2022-12-18T07:15:21;-3275.60;78.90
75161;DHT22;63738;50.096;8.716;2022-12-18T07:17:47;-3275.60;78.90
75161;DHT22;63738;50.096;8.716;2022-12-18T07:20:13;-3275.60;78.90
75161;DHT22;63738;50.096;8.716;2022-12-18T07:22:38;-3275.60;78.90
75161;DHT22;63738;50.096;8.716;2022-12-18T07:25:04;-3275.60;78.90
75161;DHT22;63738;50.096;8.716;2022-12-18T07:27:30;-3275.60;78.90
75161;DHT22;63738;50.096;8.716;2022-12-18T07:29:55;-3275.60;78.90
75161;DHT22;63738;50.096;8.716;2022-12-18T07:32:21;-3275.60;78.90
75161;DHT22;63738;50.096;8.716;2022-12-18T07:34:47;-3275.60;78.90
75161;DHT22;63738;50.096;8.716;2022-12-18T07:37:12;-3275.60;78.90
75161;DHT22;63738;50.096;8.716;2022-12-18T07:39:38;-3275.60;78.90
75161;DHT22;63738;50.096;8.716;2022-12-18T07:42:03;-3275.60;78.90
75161;DHT22;63738;50.096;8.716;2022-12-18T07:44:47;-3275.60;78.90
75161;DHT22;63738;50.096;8.716;2022-12-18T07:47:13;-3275.60;78.90
75161;DHT22;63738;50.096;8.716;2022-12-18T07:49:39;-3275.60;78.90
75161;DHT22;63738;50.096;8.716;2022-12-18T07:52:04;-3275.60;78.90
75161;DHT22;63738;50.096;8.716;2022-12-18T07:54:30;-3275.60;78.90
75161;DHT22;63738;50.096;8.716;2022-12-18T07:56:55;-3275.60;78.90
75161;DHT22;63738;50.096;8.716;2022-12-18T07:59:21;-3275.60;78.90
75161;DHT22;63738;50.096;8.716;2022-12-18T08:01:46;-3275.60;78.90
75161;DHT22;63738;50.096;8.716;2022-12-18T08:04:12;-3275.60;78.90
75161;DHT22;63738;50.096;8.716;2022-12-18T08:06:38;-3275.60;78.90
75161;DHT22;63738;50.096;8.716;2022-12-18T08:09:03;-3275.60;78.90
75161;DHT22;63738;50.096;8.716;2022-12-18T08:11:29;-3275.60;78.90
75161;DHT22;63738;50.096;8.716;2022-12-18T08:13:55;-3275.60;78.90
75161;DHT22;63738;50.096;8.716;2022-12-18T08:16:22;-3275.60;78.90
75161;DHT22;63738;50.096;8.716;2022-12-18T08:18:48;-3275.60;78.90
75161;DHT22;63738;50.096;8.716;2022-12-18T08:21:19;-3275.60;78.90
75161;DHT22;63738;50.096;8.716;2022-12-18T08:23:46;-3275.60;78.90
75161;DHT22;63738;50.096;8.716;2022-12-18T08:26:12;-3275.60;78.90
75161;DHT22;63738;50.096;8.716;2022-12-18T08:28:39;-3275.60;78.90
75161;DHT22;63738;50.096;8.716;2022-12-18T08:31:05;-3275.60;78.90
75161;DHT22;63738;50.096;8.716;2022-12-18T08:33:31;-3275.60;78.90
75161;DHT22;63738;50.096;8.716;2022-12-18T08:35:58;-3275.60;78.90
75161;DHT22;63738;50.096;8.716;2022-12-18T08:38:24;-3275.60;78.90
75161;DHT22;63738;50.096;8.716;2022-12-18T08:40:53;-3275.60;78.90
75161;DHT22;63738;50.096;8.716;2022-12-18T08:43:19;-3275.60;78.90
75161;DHT22;63738;50.096;8.716;2022-12-18T08:46:03;-3275.60;78.90
75161;DHT22;63738;50.096;8.716;2022-12-18T08:48:29;-3275.60;78.90
75161;DHT22;63738;50.096;8.716;2022-12-18T08:50:56;-3275.60;78.90
75161;DHT22;63738;50.096;8.716;2022-12-18T08:53:25;-3275.60;78.90
75161;DHT22;63738;50.096;8.716;2022-12-18T08:55:52;-3275.60;78.90
75161;DHT22;63738;50.096;8.716;2022-12-18T08:58:17;-3275.60;78.90
75161;DHT22;63738;50.096;8.716;2022-12-18T09:00:43;-3275.60;78.90
75161;DHT22;63738;50.096;8.716;2022-12-18T09:03:17;-3275.60;78.90
75161;DHT22;63738;50.096;8.716;2022-12-18T09:05:43;-3275.60;78.90
75161;DHT22;63738;50.096;8.716;2022-12-18T09:08:09;-3275.60;70.50
75161;DHT22;63738;50.096;8.716;2022-12-18T09:10:44;-3275.90;70.10
75161;DHT22;63738;50.096;8.716;2022-12-18T09:13:13;-3276.00;68.50
75161;DHT22;63738;50.096;8.716;2022-12-18T09:15:48;-3276.10;67.80
75161;DHT22;63738;50.096;8.716;2022-12-18T09:18:16;-3276.10;68.00
75161;DHT22;63738;50.096;8.716;2022-12-18T09:20:42;-3276.00;67.40
75161;DHT22;63738;50.096;8.716;2022-12-18T09:23:09;-3276.30;67.00
75161;DHT22;63738;50.096;8.716;2022-12-18T09:25:35;-3276.20;66.70
75161;DHT22;63738;50.096;8.716;2022-12-18T09:28:12;-3276.00;66.80
75161;DHT22;63738;50.096;8.716;2022-12-18T09:30:40;-3275.80;67.80
75161;DHT22;63738;50.096;8.716;2022-12-18T09:33:06;-3276.10;68.10
75161;DHT22;63738;50.096;8.716;2022-12-18T09:35:32;0.00;66.30
75161;DHT22;63738;50.096;8.716;2022-12-18T09:37:58;1.10;65.70
75161;DHT22;63738;50.096;8.716;2022-12-18T09:40:35;1.80;64.60
75161;DHT22;63738;50.096;8.716;2022-12-18T09:43:04;1.80;62.20
75161;DHT22;63738;50.096;8.716;2022-12-18T09:45:52;2.30;61.90
75161;DHT22;63738;50.096;8.716;2022-12-18T09:48:31;4.20;60.20
75161;DHT22;63738;50.096;8.716;2022-12-18T09:51:00;3.60;58.80
75161;DHT22;63738;50.096;8.716;2022-12-18T09:53:31;4.50;58.10
75161;DHT22;63738;50.096;8.716;2022-12-18T09:55:58;5.10;56.00
75161;DHT22;63738;50.096;8.716;2022-12-18T09:58:33;4.80;57.30
75161;DHT22;63738;50.096;8.716;2022-12-18T10:01:00;5.20;55.90
75161;DHT22;63738;50.096;8.716;2022-12-18T10:03:25;6.00;56.60
75161;DHT22;63738;50.096;8.716;2022-12-18T10:06:05;5.70;55.50
75161;DHT22;63738;50.096;8.716;2022-12-18T10:08:43;6.30;55.40
75161;DHT22;63738;50.096;8.716;2022-12-18T10:16:52;7.30;53.50
75161;DHT22;63738;50.096;8.716;2022-12-18T10:19:56;7.90;53.10
75161;DHT22;63738;50.096;8.716;2022-12-18T10:25:22;7.60;52.50
75161;DHT22;63738;50.096;8.716;2022-12-18T10:27:55;7.90;51.80
75161;DHT22;63738;50.096;8.716;2022-12-18T10:30:23;5.40;54.10
75161;DHT22;63738;50.096;8.716;2022-12-18T10:32:49;5.40;54.90
75161;DHT22;63738;50.096;8.716;2022-12-18T10:35:25;4.20;56.30
75161;DHT22;63738;50.096;8.716;2022-12-18T10:38:20;3.40;57.40
75161;DHT22;63738;50.096;8.716;2022-12-18T10:43:34;3.10;58.00
75161;DHT22;63738;50.096;8.716;2022-12-18T10:51:02;0.60;62.80
75161;DHT22;63738;50.096;8.716;2022-12-18T10:53:29;-3276.10;65.80
75161;DHT22;63738;50.096;8.716;2022-12-18T10:55:58;-3276.60;66.10
75161;DHT22;63738;50.096;8.716;2022-12-18T10:58:29;0.20;65.20
75161;DHT22;63738;50.096;8.716;2022-12-18T11:03:42;-3276.20;66.90
75161;DHT22;63738;50.096;8.716;2022-12-18T11:06:14;-3276.60;66.30
75161;DHT22;63738;50.096;8.716;2022-12-18T11:08:57;0.00;65.90
75161;DHT22;63738;50.096;8.716;2022-12-18T11:11:24;0.00;65.30
75161;DHT22;63738;50.096;8.716;2022-12-18T11:16:23;-3276.70;65.90
75161;DHT22;63738;50.096;8.716;2022-12-18T11:18:49;0.20;66.00
75161;DHT22;63738;50.096;8.716;2022-12-18T11:21:14;1.50;64.20
75161;DHT22;63738;50.096;8.716;2022-12-18T11:23:52;2.20;62.40
75161;DHT22;63738;50.096;8.716;2022-12-18T11:26:18;2.40;61.50
75161;DHT22;63738;50.096;8.716;2022-12-18T11:29:07;2.40;61.40
75161;DHT22;63738;50.096;8.716;2022-12-18T11:31:33;2.50;61.50
75161;DHT22;63738;50.096;8.716;2022-12-18T11:34:25;2.30;62.00
75161;DHT22;63738;50.096;8.716;2022-12-18T11:36:52;3.00;61.10
75161;DHT22;63738;50.096;8.716;2022-12-18T11:39:31;2.50;61.00
75161;DHT22;63738;50.096;8.716;2022-12-18T11:47:45;0.90;64.70
75161;DHT22;63738;50.096;8.716;2022-12-18T11:50:28;1.50;64.40
75161;DHT22;63738;50.096;8.716;2022-12-18T11:52:55;1.70;64.40
75161;DHT22;63738;50.096;8.716;2022-12-18T11:58:39;1.50;63.80
75161;DHT22;63738;50.096;8.716;2022-12-18T12:26:12;0.30;67.70
75161;DHT22;63738;50.096;8.716;2022-12-18T12:28:57;0.10;68.50
75161;DHT22;63738;50.096;8.716;2022-12-18T12:31:40;-3276.50;69.60
75161;DHT22;63738;50.096;8.716;2022-12-18T12:34:14;-3276.60;70.30
75161;DHT22;63738;50.096;8.716;2022-12-18T12:39:36;0.20;68.70
75161;DHT22;63738;50.096;8.716;2022-12-18T12:42:12;0.20;69.00
75161;DHT22;63738;50.096;8.716;2022-12-18T12:45:02;0.00;70.00
75161;DHT22;63738;50.096;8.716;2022-12-18T12:47:33;-3276.10;70.60
75161;DHT22;63738;50.096;8.716;2022-12-18T12:50:04;-3275.90;71.90
75161;DHT22;63738;50.096;8.716;2022-12-18T12:54:58;-3275.80;72.80
75161;DHT22;63738;50.096;8.716;2022-12-18T13:04:53;-3275.60;74.30
75161;DHT22;63738;50.096;8.716;2022-12-18T13:07:34;-3275.60;74.90
75161;DHT22;63738;50.096;8.716;2022-12-18T13:18:26;-3275.60;74.90
75161;DHT22;63738;50.096;8.716;2022-12-18T13:25:51;-3275.60;74.90
75161;DHT22;63738;50.096;8.716;2022-12-18T13:31:03;-3275.60;74.90
75161;DHT22;63738;50.096;8.716;2022-12-18T13:38:46;-3275.60;74.90
75161;DHT22;63738;50.096;8.716;2022-12-18T13:43:46;-3275.60;74.90
75161;DHT22;63738;50.096;8.716;2022-12-18T13:49:40;-3275.60;74.90
75161;DHT22;63738;50.096;8.716;2022-12-18T13:51:49;-3275.60;74.90
75161;DHT22;63738;50.096;8.716;2022-12-18T13:57:00;-3275.60;74.90
75161;DHT22;63738;50.096;8.716;2022-12-18T13:59:46;-3275.60;74.90
75161;DHT22;63738;50.096;8.716;2022-12-18T14:02:28;-3275.60;74.90
75161;DHT22;63738;50.096;8.716;2022-12-18T14:04:54;-3275.60;74.90
75161;DHT22;63738;50.096;8.716;2022-12-18T14:09:52;-3275.60;74.90
75161;DHT22;63738;50.096;8.716;2022-12-18T14:12:22;-3275.60;74.90
75161;DHT22;63738;50.096;8.716;2022-12-18T14:17:58;-3275.60;74.90
75161;DHT22;63738;50.096;8.716;2022-12-18T14:20:29;-3275.60;74.90
75161;DHT22;63738;50.096;8.716;2022-12-18T14:22:56;-3275.60;74.90
75161;DHT22;63738;50.096;8.716;2022-12-18T14:25:24;-3275.60;74.90
75161;DHT22;63738;50.096;8.716;2022-12-18T14:30:31;-3275.60;74.90
75161;DHT22;63738;50.096;8.716;2022-12-18T14:33:25;-3275.60;74.90
75161;DHT22;63738;50.096;8.716;2022-12-18T14:35:59;-3275.60;74.90
75161;DHT22;63738;50.096;8.716;2022-12-18T14:38:35;-3275.60;74.90
75161;DHT22;63738;50.096;8.716;2022-12-18T14:41:04;-3275.60;74.90
75161;DHT22;63738;50.096;8.716;2022-12-18T14:43:35;-3275.60;74.90
75161;DHT22;63738;50.096;8.716;2022-12-18T14:46:02;-3275.60;74.90
75161;DHT22;63738;50.096;8.716;2022-12-18T14:48:41;-3275.60;74.90
75161;DHT22;63738;50.096;8.716;2022-12-18T14:53:55;-3275.60;74.90
75161;DHT22;63738;50.096;8.716;2022-12-18T14:56:27;-3275.60;74.90
75161;DHT22;63738;50.096;8.716;2022-12-18T14:59:01;-3275.60;74.90
75161;DHT22;63738;50.096;8.716;2022-12-18T15:01:37;-3275.60;74.90
75161;DHT22;63738;50.096;8.716;2022-12-18T15:04:04;-3275.60;74.90
75161;DHT22;63738;50.096;8.716;2022-12-18T15:06:45;-3275.60;74.90
75161;DHT22;63738;50.096;8.716;2022-12-18T15:09:25;-3275.60;74.90
75161;DHT22;63738;50.096;8.716;2022-12-18T15:11:59;-3275.60;74.90
75161;DHT22;63738;50.096;8.716;2022-12-18T15:14:40;-3275.60;74.90
75161;DHT22;63738;50.096;8.716;2022-12-18T15:17:21;-3275.60;74.90
75161;DHT22;63738;50.096;8.716;2022-12-18T15:19:48;-3275.60;74.90
75161;DHT22;63738;50.096;8.716;2022-12-18T15:22:22;-3275.60;74.90
75161;DHT22;63738;50.096;8.716;2022-12-18T15:24:49;-3275.60;74.90
75161;DHT22;63738;50.096;8.716;2022-12-18T15:27:24;-3275.60;74.90
75161;DHT22;63738;50.096;8.716;2022-12-18T15:32:35;-3275.60;74.90
75161;DHT22;63738;50.096;8.716;2022-12-18T15:35:22;-3275.60;74.90
75161;DHT22;63738;50.096;8.716;2022-12-18T15:37:49;-3275.60;74.90
75161;DHT22;63738;50.096;8.716;2022-12-18T15:40:20;-3275.60;74.90
75161;DHT22;63738;50.096;8.716;2022-12-18T15:42:47;-3275.60;74.90
75161;DHT22;63738;50.096;8.716;2022-12-18T15:45:31;-3275.60;74.90
75161;DHT22;63738;50.096;8.716;2022-12-18T15:47:57;-3275.60;74.90
75161;DHT22;63738;50.096;8.716;2022-12-18T15:50:23;-3275.60;74.90
75161;DHT22;63738;50.096;8.716;2022-12-18T15:52:51;-3275.60;74.90
75161;DHT22;63738;50.096;8.716;2022-12-18T15:55:20;-3275.60;74.90
75161;DHT22;63738;50.096;8.716;2022-12-18T15:58:05;-3275.60;74.90
75161;DHT22;63738;50.096;8.716;2022-12-18T16:00:32;-3275.60;74.90
75161;DHT22;63738;50.096;8.716;2022-12-18T16:02:58;-3275.60;74.90
75161;DHT22;63738;50.096;8.716;2022-12-18T16:05:24;-3275.60;74.90
75161;DHT22;63738;50.096;8.716;2022-12-18T16:07:51;-3275.60;74.90
75161;DHT22;63738;50.096;8.716;2022-12-18T16:10:16;-3275.60;74.90
75161;DHT22;63738;50.096;8.716;2022-12-18T16:12:42;-3275.60;74.90
75161;DHT22;63738;50.096;8.716;2022-12-18T16:15:10;-3275.60;74.90
75161;DHT22;63738;50.096;8.716;2022-12-18T16:17:39;-3275.60;74.90
75161;DHT22;63738;50.096;8.716;2022-12-18T16:20:05;-3275.60;74.90
75161;DHT22;63738;50.096;8.716;2022-12-18T16:22:31;-3275.60;74.90
75161;DHT22;63738;50.096;8.716;2022-12-18T16:24:57;-3275.60;74.90
75161;DHT22;63738;50.096;8.716;2022-12-18T16:27:24;-3275.60;74.90
75161;DHT22;63738;50.096;8.716;2022-12-18T16:29:50;-3275.60;74.90
75161;DHT22;63738;50.096;8.716;2022-12-18T16:32:18;-3275.60;74.90
75161;DHT22;63738;50.096;8.716;2022-12-18T16:34:45;-3275.60;74.90
75161;DHT22;63738;50.096;8.716;2022-12-18T16:37:13;-3275.60;74.90
75161;DHT22;63738;50.096;8.716;2022-12-18T16:39:39;-3275.60;74.90
75161;DHT22;63738;50.096;8.716;2022-12-18T16:42:14;-3275.60;74.90
75161;DHT22;63738;50.096;8.716;2022-12-18T16:44:42;-3275.60;74.90
75161;DHT22;63738;50.096;8.716;2022-12-18T16:47:08;-3275.60;74.90
75161;DHT22;63738;50.096;8.716;2022-12-18T16:49:34;-3275.60;74.90
75161;DHT22;63738;50.096;8.716;2022-12-18T16:52:00;-3275.60;74.90
75161;DHT22;63738;50.096;8.716;2022-12-18T16:54:26;-3275.60;74.90
75161;DHT22;63738;50.096;8.716;2022-12-18T16:56:55;-3275.60;74.90
75161;DHT22;63738;50.096;8.716;2022-12-18T16:59:21;-3275.60;74.90
75161;DHT22;63738;50.096;8.716;2022-12-18T17:01:47;-3275.60;74.90
75161;DHT22;63738;50.096;8.716;2022-12-18T17:04:13;-3275.60;74.90
75161;DHT22;63738;50.096;8.716;2022-12-18T17:06:41;-3275.60;74.90
75161;DHT22;63738;50.096;8.716;2022-12-18T17:09:10;-3275.60;74.90
75161;DHT22;63738;50.096;8.716;2022-12-18T17:11:36;-3275.60;74.90
75161;DHT22;63738;50.096;8.716;2022-12-18T17:14:07;-3275.60;74.90
75161;DHT22;63738;50.096;8.716;2022-12-18T17:16:33;-3275.60;74.90
75161;DHT22;63738;50.096;8.716;2022-12-18T17:18:58;-3275.60;74.90
75161;DHT22;63738;50.096;8.716;2022-12-18T17:21:24;-3275.60;74.90
75161;DHT22;63738;50.096;8.716;2022-12-18T17:23:50;-3275.60;74.90
75161;DHT22;63738;50.096;8.716;2022-12-18T17:26:15;-3275.60;74.90
75161;DHT22;63738;50.096;8.716;2022-12-18T17:28:41;-3275.60;74.90